Time;durP1;ratioP1;P1;durP2;ratioP2;P2;SDS_P1;SDS_P2;PMS_P1;PMS_P2;Temp;Humidity;BMP_temperature;BMP_pressure;BME280_temperature;BME280_humidity;BME280_pressure;Samples;Min_cycle;Max_cycle;Signal;HPM_P1;HPM_P2
2022/06/12 00:01:53;;;;;;;9.30;5.00;;;23.20;87.50;;;;;;5034023;28;20203;-66
2022/06/12 00:04:19;;;;;;;6.90;5.17;;;23.20;87.30;;;;;;5032350;28;20504;-66
2022/06/12 00:06:47;;;;;;;5.93;5.13;;;23.20;87.30;;;;;;5020640;28;20209;-65
2022/06/12 00:09:13;;;;;;;6.03;5.10;;;23.20;87.90;;;;;;5034072;28;20191;-66
2022/06/12 00:11:41;;;;;;;5.23;4.70;;;23.20;87.00;;;;;;5038456;28;20569;-66
2022/06/12 00:14:07;;;;;;;5.20;4.67;;;23.10;87.10;;;;;;5033259;28;20445;-68
2022/06/12 00:16:34;;;;;;;7.07;4.70;;;23.10;87.10;;;;;;5033560;28;20434;-67
2022/06/12 00:19:01;;;;;;;5.10;4.60;;;23.10;87.20;;;;;;5030462;28;20439;-67
2022/06/12 00:21:27;;;;;;;5.67;4.30;;;23.10;87.50;;;;;;5033215;28;20439;-66
2022/06/12 00:23:58;;;;;;;5.27;4.77;;;23.00;88.00;;;;;;5031577;28;20439;-66
2022/06/12 00:26:37;;;;;;;5.80;4.80;;;23.00;87.70;;;;;;5032886;28;20439;-66
2022/06/12 00:29:10;;;;;;;5.37;4.00;;;22.90;87.90;;;;;;5032824;28;20433;-66
2022/06/12 00:31:38;;;;;;;4.90;4.20;;;22.90;88.20;;;;;;5034586;28;20485;-66
2022/06/12 00:34:05;;;;;;;7.63;4.50;;;22.80;88.60;;;;;;5015933;28;20472;-67
2022/06/12 00:36:32;;;;;;;6.23;5.43;;;22.80;88.50;;;;;;5032456;28;20970;-65
2022/06/12 00:38:58;;;;;;;6.53;5.07;;;22.70;89.60;;;;;;5032690;28;20540;-66
2022/06/12 00:41:24;;;;;;;6.53;5.93;;;22.70;90.70;;;;;;5032097;28;20455;-68
2022/06/12 00:43:50;;;;;;;23.87;6.70;;;22.60;91.20;;;;;;5034871;28;20502;-66
2022/06/12 00:46:37;;;;;;;7.30;6.60;;;22.70;92.00;;;;;;5031870;28;20872;-66
2022/06/12 00:49:21;;;;;;;7.90;6.47;;;22.70;91.90;;;;;;5026680;28;20184;-66
2022/06/12 00:51:50;;;;;;;6.13;5.63;;;22.80;92.20;;;;;;5031368;28;20498;-66
2022/06/12 00:54:16;;;;;;;6.40;5.80;;;22.80;92.40;;;;;;5026806;28;20434;-66
2022/06/12 00:56:47;;;;;;;11.03;5.87;;;22.80;92.80;;;;;;5030986;28;21009;-66
2022/06/12 00:59:27;;;;;;;7.57;6.57;;;22.70;93.00;;;;;;5015229;28;20446;-67
2022/06/12 01:01:53;;;;;;;7.00;6.00;;;22.70;93.20;;;;;;5014027;28;20466;-66
2022/06/12 01:07:10;;;;;;;7.53;6.13;;;22.70;93.50;;;;;;5032821;28;20445;-65
2022/06/12 01:09:40;;;;;;;6.67;6.07;;;22.70;93.60;;;;;;5031543;28;20770;-65
2022/06/12 01:12:10;;;;;;;7.13;6.43;;;22.70;94.00;;;;;;5034984;28;20510;-65
2022/06/12 01:14:42;;;;;;;8.87;5.70;;;22.60;94.20;;;;;;5041369;28;20429;-66
2022/06/12 01:17:10;;;;;;;8.10;6.73;;;22.60;94.30;;;;;;5036249;28;20434;-66
2022/06/12 01:19:50;;;;;;;7.00;5.80;;;22.50;94.50;;;;;;5038703;28;20923;-67
2022/06/12 01:23:01;;;;;;;7.70;6.13;;;22.40;95.10;;;;;;5033641;28;20473;-67
2022/06/12 01:25:50;;;;;;;9.83;6.07;;;22.40;95.30;;;;;;5031641;28;20554;-66
2022/06/12 01:28:36;;;;;;;6.63;6.03;;;22.50;95.50;;;;;;5038335;28;20426;-67
2022/06/12 01:31:14;;;;;;;9.10;6.10;;;22.40;95.50;;;;;;5037660;28;20466;-67
2022/06/12 01:34:18;;;;;;;9.00;6.13;;;22.50;95.70;;;;;;5049955;28;20865;-67
2022/06/12 01:37:09;;;;;;;6.93;6.33;;;22.40;95.90;;;;;;5011451;28;20973;-67
2022/06/12 01:39:44;;;;;;;8.17;6.50;;;22.30;96.10;;;;;;5032080;28;20439;-67
2022/06/12 01:42:29;;;;;;;10.63;6.03;;;22.20;96.30;;;;;;5036670;28;20446;-67
2022/06/12 01:45:00;;;;;;;7.43;6.00;;;22.20;96.50;;;;;;5037122;28;21235;-67
2022/06/12 01:47:44;;;;;;;7.97;5.83;;;22.20;96.60;;;;;;5035646;28;20434;-67
2022/06/12 01:50:47;;;;;;;8.33;5.63;;;22.20;97.10;;;;;;5031631;28;20986;-67
2022/06/12 01:53:24;;;;;;;5.70;5.20;;;22.10;97.50;;;;;;5036554;28;20491;-66
2022/06/12 01:56:12;;;;;;;8.00;5.80;;;22.10;97.70;;;;;;5033413;28;20438;-66
2022/06/12 01:58:56;;;;;;;6.10;5.57;;;22.10;97.80;;;;;;5034120;28;20431;-66
2022/06/12 02:01:32;;;;;;;8.63;5.63;;;22.10;98.00;;;;;;5036387;28;21022;-66
2022/06/12 02:04:07;;;;;;;6.27;5.67;;;22.10;98.20;;;;;;5033538;28;20438;-66
2022/06/12 02:06:45;;;;;;;5.87;5.33;;;22.00;98.30;;;;;;5032602;28;20532;-66
2022/06/12 02:09:42;;;;;;;6.47;5.63;;;22.00;98.50;;;;;;5034144;28;21014;-66
2022/06/12 02:15:23;;;;;;;9.17;5.70;;;21.90;99.30;;;;;;5033810;28;20511;-66
2022/06/12 02:18:10;;;;;;;7.20;5.70;;;21.90;99.90;;;;;;5034232;28;20929;-66
2022/06/12 02:20:42;;;;;;;6.83;5.73;;;21.80;99.90;;;;;;5036848;28;20950;-66
2022/06/12 02:23:20;;;;;;;5.90;5.33;;;21.80;99.90;;;;;;5034150;28;20948;-66
2022/06/12 02:25:52;;;;;;;9.83;6.10;;;21.80;99.90;;;;;;5020679;28;20514;-66
2022/06/12 02:28:29;;;;;;;5.87;5.27;;;21.70;99.90;;;;;;5036661;28;21610;-67
2022/06/12 02:30:59;;;;;;;6.33;5.50;;;21.70;99.90;;;;;;5034912;28;20494;-67
2022/06/12 02:33:31;;;;;;;5.87;5.27;;;21.70;99.90;;;;;;5033586;28;20481;-66
2022/06/12 02:36:01;;;;;;;7.40;5.20;;;21.60;99.90;;;;;;5034975;28;20870;-67
2022/06/12 02:38:41;;;;;;;6.90;4.90;;;21.20;99.90;;;;;;5032060;28;20431;-67
2022/06/12 02:41:17;;;;;;;6.40;5.50;;;21.20;99.90;;;;;;5031642;28;20527;-67
2022/06/12 02:43:44;;;;;;;9.63;6.67;;;21.30;99.90;;;;;;5038083;28;21259;-67
2022/06/12 02:46:39;;;;;;;7.00;6.30;;;21.20;99.90;;;;;;5020938;28;20441;-67
2022/06/12 02:49:06;;;;;;;6.60;6.00;;;21.20;99.90;;;;;;5018607;28;20435;-66
2022/06/12 02:51:55;;;;;;;6.90;6.30;;;21.20;99.90;;;;;;5035952;28;20836;-66
2022/06/12 02:54:52;;;;;;;10.30;6.40;;;21.30;99.90;;;;;;5032792;28;20564;-66
2022/06/12 02:57:33;;;;;;;7.47;5.40;;;21.10;99.90;;;;;;5032756;28;20892;-66
2022/06/12 03:00:34;;;;;;;5.33;4.83;;;21.10;99.90;;;;;;5036190;28;20435;-66
2022/06/12 03:03:20;;;;;;;7.90;4.87;;;21.20;99.90;;;;;;5034778;28;20508;-65
2022/06/12 03:05:50;;;;;;;9.53;5.77;;;21.10;99.90;;;;;;5036763;28;21103;-66
2022/06/12 03:08:19;;;;;;;5.60;4.60;;;21.10;99.90;;;;;;5036139;28;20840;-66
2022/06/12 03:10:50;;;;;;;8.00;5.23;;;21.10;99.90;;;;;;5035168;28;20455;-66
2022/06/12 03:13:17;;;;;;;6.30;4.70;;;21.10;99.90;;;;;;5021064;28;20461;-66
2022/06/12 03:15:57;;;;;;;7.07;5.10;;;21.10;99.90;;;;;;5030742;28;20444;-66
2022/06/12 03:18:31;;;;;;;7.17;5.37;;;21.10;99.90;;;;;;5035922;28;20474;-65
2022/06/12 03:21:38;;;;;;;5.60;4.23;;;21.00;99.90;;;;;;5034887;28;20438;-66
2022/06/12 03:24:28;;;;;;;5.27;4.77;;;21.00;99.90;;;;;;5018355;28;20443;-65
2022/06/12 03:27:19;;;;;;;5.40;4.90;;;21.00;99.90;;;;;;5036902;28;20442;-67
2022/06/12 03:29:48;;;;;;;5.33;4.87;;;20.90;99.90;;;;;;5030724;28;21017;-67
2022/06/12 03:32:29;;;;;;;7.23;6.33;;;20.90;99.90;;;;;;5033219;28;20454;-65
2022/06/12 03:35:10;;;;;;;5.03;4.53;;;20.90;99.90;;;;;;5033966;28;20432;-66
2022/06/12 03:37:46;;;;;;;5.30;4.50;;;20.90;99.90;;;;;;5035119;28;20431;-66
2022/06/12 03:40:18;;;;;;;7.63;5.10;;;20.80;99.90;;;;;;5032729;28;20446;-65
2022/06/12 03:43:02;;;;;;;7.10;5.30;;;20.80;99.90;;;;;;5034935;28;20471;-65
2022/06/12 03:46:00;;;;;;;6.87;4.93;;;20.90;99.90;;;;;;5031569;28;20467;-65
2022/06/12 03:48:33;;;;;;;7.37;5.00;;;20.90;99.90;;;;;;5033057;28;20430;-65
2022/06/12 03:51:07;;;;;;;5.43;4.93;;;20.90;99.90;;;;;;5029414;28;20471;-65
2022/06/12 03:53:48;;;;;;;5.20;4.70;;;21.00;99.90;;;;;;5033383;28;20485;-65
2022/06/12 03:59:08;;;;;;;5.93;4.80;;;21.00;99.90;;;;;;5030283;28;20465;-65
2022/06/12 04:01:34;;;;;;;5.73;4.47;;;21.00;99.90;;;;;;5034280;28;20458;-65
2022/06/12 04:04:01;;;;;;;5.60;5.00;;;20.90;99.90;;;;;;5033454;28;20443;-65
2022/06/12 04:06:30;;;;;;;10.30;4.97;;;20.90;99.90;;;;;;5031804;28;20438;-65
2022/06/12 04:09:05;;;;;;;5.20;4.77;;;20.90;99.90;;;;;;5038663;28;20582;-66
2022/06/12 04:11:36;;;;;;;5.23;4.73;;;20.90;99.90;;;;;;5031872;28;20466;-65
2022/06/12 04:14:04;;;;;;;8.13;5.77;;;20.90;99.90;;;;;;5033097;28;20508;-66
2022/06/12 04:16:32;;;;;;;7.57;5.10;;;21.00;99.90;;;;;;5034310;28;20435;-67
2022/06/12 04:18:58;;;;;;;6.07;5.50;;;21.00;99.90;;;;;;5034014;28;20496;-66
2022/06/12 04:21:33;;;;;;;7.87;5.20;;;20.90;99.90;;;;;;5032700;28;20439;-66
2022/06/12 04:24:11;;;;;;;6.53;5.00;;;21.00;99.90;;;;;;5035071;28;20547;-66
2022/06/12 04:26:45;;;;;;;5.40;4.90;;;21.00;99.90;;;;;;5034538;28;21023;-67
2022/06/12 04:29:11;;;;;;;7.20;5.23;;;20.90;99.90;;;;;;5035629;28;20437;-66
2022/06/12 04:31:38;;;;;;;6.20;4.60;;;20.90;99.90;;;;;;5032259;28;20463;-65
2022/06/12 04:34:25;;;;;;;12.43;5.20;;;20.80;99.90;;;;;;5034447;28;20234;-65
2022/06/12 04:37:00;;;;;;;5.30;4.80;;;20.90;99.90;;;;;;5036099;28;20440;-66
2022/06/12 04:39:29;;;;;;;4.80;4.40;;;20.90;99.90;;;;;;5031711;28;20462;-65
2022/06/12 04:41:55;;;;;;;6.20;4.80;;;20.90;99.90;;;;;;5032739;28;20458;-66
2022/06/12 04:44:22;;;;;;;6.60;4.93;;;20.90;99.90;;;;;;5034146;28;20455;-67
2022/06/12 04:46:50;;;;;;;7.83;4.57;;;20.90;99.90;;;;;;5043664;28;20955;-67
2022/06/12 04:49:19;;;;;;;5.53;4.63;;;20.90;99.90;;;;;;5037105;28;20433;-67
2022/06/12 04:51:45;;;;;;;5.97;4.70;;;20.90;99.90;;;;;;5038228;28;20482;-68
2022/06/12 04:54:12;;;;;;;7.53;5.10;;;20.90;99.90;;;;;;5035342;28;20449;-66
2022/06/12 04:56:38;;;;;;;6.20;5.00;;;20.90;99.90;;;;;;5035267;28;20989;-68
2022/06/12 04:59:05;;;;;;;5.73;5.17;;;20.90;99.90;;;;;;5039911;28;20480;-68
2022/06/12 05:01:32;;;;;;;5.93;5.43;;;20.90;99.90;;;;;;5036511;28;20191;-66
2022/06/12 05:04:00;;;;;;;6.00;4.90;;;20.90;99.90;;;;;;5040565;28;20521;-66
2022/06/12 05:06:27;;;;;;;6.63;4.90;;;21.00;99.90;;;;;;5037944;28;20434;-65
2022/06/12 05:08:53;;;;;;;6.37;4.83;;;21.10;99.90;;;;;;5036501;28;20442;-66
2022/06/12 05:11:19;;;;;;;5.93;5.13;;;21.10;99.90;;;;;;5038587;28;20466;-66
2022/06/12 05:13:44;;;;;;;8.17;5.60;;;21.20;99.90;;;;;;5037638;28;20484;-66
2022/06/12 05:16:26;;;;;;;6.00;5.40;;;21.30;99.90;;;;;;5037066;28;20853;-66
2022/06/12 05:18:52;;;;;;;5.83;5.33;;;21.30;99.90;;;;;;5040086;28;20200;-66
2022/06/12 05:21:18;;;;;;;7.53;5.90;;;21.30;99.90;;;;;;5038380;28;21231;-66
2022/06/12 05:23:44;;;;;;;5.73;5.23;;;21.40;99.90;;;;;;5035580;28;20185;-66
2022/06/12 05:26:16;;;;;;;5.90;5.30;;;21.40;99.90;;;;;;5035607;28;20183;-66
2022/06/12 05:28:42;;;;;;;8.93;6.87;;;21.50;99.90;;;;;;5036962;28;20453;-66
2022/06/12 05:31:07;;;;;;;6.13;5.30;;;21.60;99.90;;;;;;5037984;28;20467;-66
2022/06/12 05:33:33;;;;;;;11.53;6.50;;;21.60;99.90;;;;;;5037551;28;20245;-66
2022/06/12 05:35:58;;;;;;;7.30;6.00;;;21.70;99.90;;;;;;5035776;28;20180;-67
2022/06/12 05:38:24;;;;;;;6.93;6.23;;;21.70;99.90;;;;;;5036040;28;20176;-67
2022/06/12 05:40:50;;;;;;;8.93;5.80;;;21.70;99.90;;;;;;5017972;28;20206;-67
2022/06/12 05:43:16;;;;;;;7.13;6.43;;;21.70;99.90;;;;;;5038459;28;20254;-67
2022/06/12 05:45:42;;;;;;;7.50;6.70;;;21.80;99.90;;;;;;5033594;28;20535;-68
2022/06/12 05:48:12;;;;;;;6.57;5.17;;;21.80;99.90;;;;;;5032901;28;20434;-66
2022/06/12 05:50:53;;;;;;;6.90;6.20;;;21.80;99.90;;;;;;5018727;28;20762;-68
2022/06/12 05:53:21;;;;;;;8.40;6.07;;;21.90;99.90;;;;;;5035251;28;20454;-67
2022/06/12 05:55:47;;;;;;;6.17;5.57;;;21.90;99.90;;;;;;5035126;28;20454;-67
2022/06/12 05:58:14;;;;;;;11.00;8.20;;;22.00;99.90;;;;;;5032553;28;20458;-66
2022/06/12 06:00:40;;;;;;;11.40;8.63;;;21.90;99.90;;;;;;5033446;28;21006;-68
2022/06/12 06:03:06;;;;;;;8.07;7.27;;;22.00;99.90;;;;;;5038799;28;20458;-66
2022/06/12 06:05:34;;;;;;;6.90;6.23;;;22.10;99.90;;;;;;5033301;28;20431;-66
2022/06/12 06:07:59;;;;;;;12.40;6.77;;;22.10;99.90;;;;;;5031188;28;20187;-66
2022/06/12 06:10:27;;;;;;;6.33;5.83;;;22.20;99.90;;;;;;5035621;28;20495;-67
2022/06/12 06:12:53;;;;;;;7.93;6.70;;;22.20;99.90;;;;;;5034224;28;20250;-67
2022/06/12 06:15:20;;;;;;;8.30;7.13;;;22.20;99.90;;;;;;5032718;28;20518;-66
2022/06/12 06:17:46;;;;;;;10.40;7.10;;;22.30;99.90;;;;;;5032356;28;20802;-67
2022/06/12 06:20:18;;;;;;;6.93;6.30;;;22.30;99.90;;;;;;5032506;28;20456;-68
2022/06/12 06:22:44;;;;;;;9.53;7.37;;;22.30;99.90;;;;;;5035441;28;20520;-67
2022/06/12 06:25:10;;;;;;;7.80;7.03;;;22.40;99.90;;;;;;5032740;28;20438;-66
2022/06/12 06:27:36;;;;;;;7.80;6.97;;;22.40;99.90;;;;;;5034981;28;20196;-67
2022/06/12 06:30:02;;;;;;;10.97;7.40;;;22.40;99.90;;;;;;5033584;28;20477;-66
2022/06/12 06:32:28;;;;;;;8.10;6.30;;;22.50;99.90;;;;;;5031617;28;20708;-66
2022/06/12 06:34:54;;;;;;;10.50;7.00;;;22.50;99.90;;;;;;5034471;28;20505;-66
2022/06/12 06:37:20;;;;;;;8.37;7.50;;;22.50;99.90;;;;;;5035600;28;21192;-67
2022/06/12 06:39:45;;;;;;;7.60;6.80;;;22.60;99.90;;;;;;5034138;28;20183;-67
2022/06/12 06:42:11;;;;;;;11.93;10.27;;;22.60;99.90;;;;;;5033579;28;20235;-67
2022/06/12 06:47:22;;;;;;;8.50;6.87;;;22.70;99.90;;;;;;5031755;28;20272;-66
2022/06/12 06:49:47;;;;;;;9.00;7.20;;;22.70;99.90;;;;;;5034059;28;20605;-66
2022/06/12 06:52:13;;;;;;;8.73;7.87;;;22.70;99.90;;;;;;5036461;28;20471;-66
2022/06/12 06:54:40;;;;;;;7.40;6.70;;;22.80;99.90;;;;;;5018561;28;20219;-67
2022/06/12 06:57:07;;;;;;;8.63;7.50;;;22.80;99.90;;;;;;5031487;28;20185;-68
2022/06/12 06:59:34;;;;;;;8.10;6.40;;;22.80;99.90;;;;;;5035430;28;21002;-68
2022/06/12 07:01:59;;;;;;;7.57;6.53;;;22.90;99.90;;;;;;5036055;28;20461;-66
2022/06/12 07:04:25;;;;;;;6.77;5.40;;;22.90;99.90;;;;;;5032531;28;20443;-67
2022/06/12 07:06:51;;;;;;;7.47;6.57;;;23.00;99.90;;;;;;5034695;28;20237;-66
2022/06/12 07:09:17;;;;;;;7.30;6.60;;;23.00;99.90;;;;;;5031981;28;20443;-65
2022/06/12 07:11:42;;;;;;;14.10;8.80;;;23.00;99.90;;;;;;5032513;28;20240;-66
2022/06/12 07:14:08;;;;;;;6.83;6.13;;;23.10;99.90;;;;;;5033510;28;20188;-66
2022/06/12 07:16:35;;;;;;;7.97;6.77;;;23.10;99.90;;;;;;5037759;28;20189;-66
2022/06/12 07:19:00;;;;;;;7.60;5.80;;;23.20;99.90;;;;;;5033542;28;20226;-66
2022/06/12 07:21:26;;;;;;;8.93;7.70;;;23.10;99.90;;;;;;5033031;28;20931;-66
2022/06/12 07:23:51;;;;;;;7.50;6.30;;;23.20;99.90;;;;;;5029725;28;20279;-67
2022/06/12 07:26:24;;;;;;;6.57;5.77;;;23.30;99.90;;;;;;5033912;28;20271;-66
2022/06/12 07:28:50;;;;;;;9.20;5.40;;;23.30;99.90;;;;;;5032441;28;20191;-67
2022/06/12 07:31:17;;;;;;;11.33;10.23;;;23.40;99.90;;;;;;5034004;28;20823;-67
2022/06/12 07:33:43;;;;;;;7.23;5.90;;;23.50;99.90;;;;;;5032119;28;20477;-66
2022/06/12 07:36:11;;;;;;;6.83;5.27;;;23.50;99.90;;;;;;5032684;28;20926;-67
2022/06/12 07:38:37;;;;;;;9.47;5.70;;;23.60;99.90;;;;;;5031565;28;20269;-66
2022/06/12 07:41:06;;;;;;;5.73;5.23;;;23.70;99.90;;;;;;5036792;28;20485;-66
2022/06/12 07:43:34;;;;;;;7.67;5.27;;;23.70;99.90;;;;;;5033781;28;20454;-66
2022/06/12 07:46:05;;;;;;;6.80;5.90;;;23.70;99.90;;;;;;5036697;28;20505;-66
2022/06/12 07:48:31;;;;;;;5.53;4.90;;;23.80;99.90;;;;;;5034527;28;20473;-66
2022/06/12 07:50:59;;;;;;;6.07;5.03;;;23.80;99.90;;;;;;5032317;28;20469;-66
2022/06/12 07:53:25;;;;;;;6.83;6.17;;;23.90;99.90;;;;;;5033728;28;20458;-66
2022/06/12 07:55:53;;;;;;;7.00;5.63;;;23.90;99.90;;;;;;5035170;28;20509;-66
2022/06/12 07:58:23;;;;;;;9.23;5.57;;;23.90;99.90;;;;;;5032521;28;20973;-67
2022/06/12 08:00:49;;;;;;;6.10;5.00;;;24.00;99.90;;;;;;5034504;28;20957;-67
2022/06/12 08:03:15;;;;;;;5.70;5.20;;;24.00;99.90;;;;;;5027252;28;20533;-66
2022/06/12 08:05:40;;;;;;;6.10;5.50;;;24.00;99.90;;;;;;5034942;28;20531;-66
2022/06/12 08:08:06;;;;;;;5.77;5.10;;;24.10;99.90;;;;;;5039956;28;20180;-66
2022/06/12 08:10:32;;;;;;;7.33;5.30;;;24.10;99.90;;;;;;5015172;28;20292;-65
2022/06/12 08:13:02;;;;;;;6.17;5.57;;;24.20;99.90;;;;;;5034466;28;20466;-67
2022/06/12 08:15:29;;;;;;;7.83;5.90;;;24.30;99.90;;;;;;5035699;28;20523;-67
2022/06/12 08:17:59;;;;;;;7.00;5.47;;;24.40;99.90;;;;;;5035101;28;21054;-66
2022/06/12 08:20:30;;;;;;;6.23;5.37;;;24.40;99.90;;;;;;5034292;28;20430;-66
2022/06/12 08:23:06;;;;;;;7.67;4.97;;;24.40;99.90;;;;;;5017101;28;20455;-66
2022/06/12 08:25:35;;;;;;;5.10;4.40;;;24.50;99.90;;;;;;5023134;28;20465;-67
2022/06/12 08:28:02;;;;;;;9.50;4.77;;;24.60;99.90;;;;;;5023023;28;20974;-67
2022/06/12 08:30:29;;;;;;;7.77;6.93;;;24.70;99.90;;;;;;5034070;28;20469;-65
2022/06/12 08:32:55;;;;;;;7.00;5.47;;;24.70;99.90;;;;;;5033094;28;20446;-66
2022/06/12 08:35:28;;;;;;;5.60;4.90;;;24.80;99.90;;;;;;5048415;28;20994;-67
2022/06/12 08:37:54;;;;;;;10.40;4.70;;;24.80;99.90;;;;;;5039330;28;20458;-67
2022/06/12 08:40:44;;;;;;;6.40;5.77;;;24.90;99.90;;;;;;5032131;28;20450;-67
2022/06/12 08:43:27;;;;;;;6.10;5.50;;;25.00;99.90;;;;;;5034861;28;20196;-67
2022/06/12 08:45:57;;;;;;;6.00;5.10;;;25.00;99.90;;;;;;5030169;28;20434;-67
2022/06/12 08:48:31;;;;;;;5.73;5.20;;;25.10;99.90;;;;;;5028838;28;20438;-66
2022/06/12 08:51:23;;;;;;;6.03;5.43;;;25.10;99.90;;;;;;5033355;28;20509;-67
2022/06/12 08:53:59;;;;;;;7.70;5.90;;;25.20;99.90;;;;;;5030478;28;20451;-67
2022/06/12 08:56:35;;;;;;;5.67;4.57;;;25.20;99.90;;;;;;5030794;28;20434;-67
2022/06/12 08:59:14;;;;;;;7.90;4.73;;;25.30;99.90;;;;;;5031856;28;20502;-67
2022/06/12 09:01:43;;;;;;;5.30;4.80;;;25.40;99.90;;;;;;5014040;28;21146;-67
2022/06/12 09:04:16;;;;;;;7.93;4.70;;;25.40;99.90;;;;;;5048543;28;20456;-66
2022/06/12 09:06:51;;;;;;;5.13;4.57;;;25.40;99.90;;;;;;5031278;28;20467;-67
2022/06/12 09:09:37;;;;;;;5.10;4.60;;;25.40;99.90;;;;;;5029092;28;20446;-66
2022/06/12 09:12:28;;;;;;;7.07;4.43;;;25.50;99.90;;;;;;5031180;28;20506;-66
2022/06/12 09:15:10;;;;;;;4.60;4.20;;;25.60;99.90;;;;;;5029871;28;20431;-66
2022/06/12 09:18:04;;;;;;;7.60;4.80;;;25.60;99.90;;;;;;5026497;28;20442;-66
2022/06/12 09:20:49;;;;;;;5.93;4.57;;;25.60;99.90;;;;;;5030267;28;20441;-65
2022/06/12 09:23:47;;;;;;;4.50;3.70;;;25.60;99.90;;;;;;5025977;28;20459;-65
2022/06/12 09:26:24;;;;;;;4.50;4.00;;;25.80;99.90;;;;;;5028363;28;20528;-66
2022/06/12 09:29:21;;;;;;;6.90;4.30;;;25.90;99.90;;;;;;5029803;28;20448;-67
2022/06/12 09:32:17;;;;;;;6.60;5.10;;;26.00;99.90;;;;;;5033491;28;20886;-66
2022/06/12 09:35:26;;;;;;;4.00;3.30;;;26.00;99.90;;;;;;5036923;28;20438;-66
2022/06/12 09:38:31;;;;;;;4.27;3.87;;;26.10;99.90;;;;;;5010029;28;20443;-65
2022/06/12 09:41:12;;;;;;;4.27;3.83;;;26.20;99.90;;;;;;5034736;28;20484;-66
2022/06/12 09:43:40;;;;;;;6.03;5.43;;;26.30;99.90;;;;;;5037612;28;20455;-65
2022/06/12 09:46:22;;;;;;;4.60;4.20;;;26.30;99.80;;;;;;5038263;28;20517;-65
2022/06/12 09:48:55;;;;;;;5.10;3.50;;;26.30;99.50;;;;;;5036200;28;20480;-66
2022/06/12 09:51:44;;;;;;;9.00;8.10;;;26.40;99.10;;;;;;5034417;28;20469;-66
2022/06/12 09:54:44;;;;;;;5.33;3.67;;;26.40;98.90;;;;;;5027409;28;20455;-67
2022/06/12 09:57:47;;;;;;;5.33;4.03;;;26.40;97.80;;;;;;5029081;28;20499;-68
2022/06/12 10:00:21;;;;;;;4.23;3.83;;;26.40;97.10;;;;;;5031390;28;20465;-68
2022/06/12 10:03:08;;;;;;;6.60;3.33;;;26.60;96.60;;;;;;5031343;28;20458;-68
2022/06/12 10:05:46;;;;;;;6.47;4.83;;;26.60;96.40;;;;;;5033153;28;20438;-67
2022/06/12 10:08:15;;;;;;;4.97;4.47;;;26.70;96.60;;;;;;5035837;28;20433;-67
2022/06/12 10:10:51;;;;;;;5.53;4.77;;;26.80;97.20;;;;;;5032453;28;20529;-67
2022/06/12 10:13:22;;;;;;;4.80;4.30;;;26.90;97.40;;;;;;5033375;28;20830;-66
2022/06/12 10:15:53;;;;;;;9.40;4.23;;;26.90;96.90;;;;;;5031634;28;20495;-68
2022/06/12 10:18:34;;;;;;;4.60;4.10;;;26.90;96.60;;;;;;5032360;28;20442;-66
2022/06/12 10:21:08;;;;;;;6.87;5.10;;;27.00;95.80;;;;;;5034246;28;20443;-67
2022/06/12 10:23:34;;;;;;;4.00;3.60;;;27.00;95.60;;;;;;5029229;28;20545;-67
2022/06/12 10:26:01;;;;;;;6.03;4.63;;;27.10;95.50;;;;;;5034011;28;20530;-67
2022/06/12 10:28:33;;;;;;;8.37;4.30;;;27.10;94.80;;;;;;5015333;28;20195;-65
2022/06/12 10:31:18;;;;;;;4.07;3.77;;;27.20;95.00;;;;;;5031450;28;20463;-66
2022/06/12 10:33:54;;;;;;;4.23;3.80;;;27.30;95.00;;;;;;5031508;28;20970;-66
2022/06/12 10:36:27;;;;;;;4.27;3.77;;;27.40;94.80;;;;;;5032395;28;21070;-66
2022/06/12 10:39:04;;;;;;;4.17;3.77;;;27.60;94.20;;;;;;5032335;28;20445;-66
2022/06/12 10:41:31;;;;;;;12.23;6.47;;;27.60;93.80;;;;;;5031870;28;20439;-65
2022/06/12 10:43:57;;;;;;;7.37;4.20;;;27.60;94.00;;;;;;5029973;28;20442;-67
2022/06/12 10:46:30;;;;;;;5.93;4.30;;;27.60;94.10;;;;;;5033805;28;20417;-67
2022/06/12 10:49:18;;;;;;;4.17;3.77;;;27.70;94.00;;;;;;5036639;28;20771;-67
2022/06/12 10:51:46;;;;;;;6.20;4.37;;;27.80;93.10;;;;;;5033527;28;20478;-65
2022/06/12 10:54:18;;;;;;;3.70;3.33;;;27.80;92.90;;;;;;5033125;28;20434;-67
2022/06/12 10:57:10;;;;;;;3.83;3.53;;;27.80;91.70;;;;;;5033295;28;20485;-67
2022/06/12 10:59:42;;;;;;;4.40;4.00;;;27.90;91.50;;;;;;5033956;28;20438;-66
2022/06/12 11:02:31;;;;;;;9.93;3.40;;;28.00;91.60;;;;;;5033281;28;21037;-65
2022/06/12 11:04:59;;;;;;;5.13;3.80;;;28.10;90.40;;;;;;5033852;28;20440;-66
2022/06/12 11:08:13;;;;;;;3.63;3.20;;;28.00;89.40;;;;;;5029962;28;20439;-66
2022/06/12 11:10:46;;;;;;;3.80;3.23;;;28.20;89.80;;;;;;4968195;28;21182;-67
2022/06/12 11:13:34;;;;;;;3.80;3.40;;;28.30;86.00;;;;;;5048273;28;20450;-67
2022/06/12 11:16:15;;;;;;;5.90;3.70;;;28.40;84.30;;;;;;5028965;28;20497;-67
2022/06/12 11:18:59;;;;;;;4.77;3.37;;;28.40;84.00;;;;;;5027414;28;20473;-67
2022/06/12 11:21:44;;;;;;;4.17;3.77;;;28.40;84.10;;;;;;5030958;28;20438;-66
2022/06/12 11:24:26;;;;;;;4.40;3.40;;;28.60;83.90;;;;;;5046329;28;20452;-66
2022/06/12 11:27:19;;;;;;;4.47;3.77;;;28.70;83.60;;;;;;5029678;28;20467;-67
2022/06/12 11:29:48;;;;;;;4.00;3.70;;;28.80;85.50;;;;;;5034034;28;20519;-68
2022/06/12 11:32:13;;;;;;;3.87;3.57;;;28.90;84.80;;;;;;5037951;28;20442;-68
2022/06/12 11:35:05;;;;;;;5.20;3.90;;;29.10;83.50;;;;;;5033303;28;20430;-69
2022/06/12 11:38:08;;;;;;;4.47;3.47;;;29.10;84.10;;;;;;5004413;28;20193;-68
2022/06/12 11:40:46;;;;;;;4.23;3.70;;;29.30;83.30;;;;;;5028557;28;20446;-68
2022/06/12 11:43:39;;;;;;;4.73;3.67;;;29.30;82.60;;;;;;5036947;28;20505;-68
2022/06/12 11:46:20;;;;;;;5.37;4.40;;;29.40;82.90;;;;;;5034732;28;21171;-68
2022/06/12 11:48:49;;;;;;;4.13;3.53;;;29.80;81.20;;;;;;5031457;28;20423;-68
2022/06/12 11:51:40;;;;;;;4.87;3.87;;;30.20;80.30;;;;;;5030135;28;20477;-68
2022/06/12 11:54:50;;;;;;;4.67;4.10;;;30.60;78.30;;;;;;5034041;28;20517;-67
2022/06/12 11:57:36;;;;;;;3.73;3.30;;;30.90;77.70;;;;;;4975254;28;20895;-67
2022/06/12 12:00:09;;;;;;;4.10;3.70;;;31.30;76.70;;;;;;5030217;28;20416;-67
2022/06/12 12:03:06;;;;;;;4.43;3.33;;;31.40;72.40;;;;;;5030507;28;20507;-67
2022/06/12 12:05:52;;;;;;;3.60;3.30;;;31.40;71.00;;;;;;5029864;28;20454;-66
2022/06/12 12:08:37;;;;;;;5.07;3.10;;;31.50;70.10;;;;;;5030143;28;20604;-67
2022/06/12 12:11:24;;;;;;;5.10;3.67;;;32.30;70.70;;;;;;5032160;28;20466;-68
2022/06/12 12:13:54;;;;;;;6.20;3.57;;;33.40;68.30;;;;;;5036322;28;20432;-67
2022/06/12 12:16:36;;;;;;;6.00;3.30;;;35.10;64.40;;;;;;5029722;28;20439;-67
2022/06/12 12:19:22;;;;;;;3.20;2.90;;;36.50;58.50;;;;;;5031652;28;20865;-67
2022/06/12 12:21:55;;;;;;;4.03;3.30;;;36.80;57.30;;;;;;5032286;28;20625;-67
2022/06/12 12:24:28;;;;;;;4.50;3.60;;;36.80;53.50;;;;;;5015429;28;20546;-67
2022/06/12 12:26:59;;;;;;;3.77;3.30;;;35.50;53.90;;;;;;5013331;28;20512;-67
2022/06/12 12:29:28;;;;;;;5.17;3.37;;;34.70;54.40;;;;;;5027929;28;20446;-67
2022/06/12 12:31:56;;;;;;;3.67;3.37;;;35.50;53.90;;;;;;5028326;28;20465;-67
2022/06/12 12:34:24;;;;;;;3.47;3.17;;;36.80;53.80;;;;;;5011135;28;20439;-67
2022/06/12 12:42:33;;;;;;;4.13;2.80;;;35.30;54.80;;;;;;5026065;28;20465;-67
2022/06/12 12:45:19;;;;;;;4.17;2.90;;;34.80;51.40;;;;;;5030931;28;20953;-67
2022/06/12 12:47:44;;;;;;;4.23;2.93;;;34.70;50.80;;;;;;5011207;28;20586;-67
2022/06/12 12:50:14;;;;;;;2.80;2.60;;;35.10;50.80;;;;;;5028812;28;20466;-68
2022/06/12 12:52:54;;;;;;;3.20;2.87;;;35.10;49.70;;;;;;5030378;28;20207;-67
2022/06/12 12:55:23;;;;;;;4.03;2.80;;;36.90;50.30;;;;;;5027240;28;20431;-67
2022/06/12 12:57:50;;;;;;;3.40;2.70;;;37.80;47.20;;;;;;5031196;28;20456;-67
2022/06/12 13:00:16;;;;;;;3.43;2.90;;;37.20;46.40;;;;;;5030490;28;20451;-67
2022/06/12 13:03:04;;;;;;;3.47;2.70;;;37.60;46.20;;;;;;5027301;28;20474;-66
2022/06/12 13:05:45;;;;;;;2.63;2.20;;;36.80;46.70;;;;;;5026738;28;20184;-68
2022/06/12 13:08:17;;;;;;;4.03;2.90;;;35.70;47.80;;;;;;5030802;28;20438;-67
2022/06/12 13:10:56;;;;;;;2.87;2.67;;;36.10;48.50;;;;;;5034724;28;20437;-68
2022/06/12 13:14:12;;;;;;;3.10;2.80;;;36.20;47.60;;;;;;5020197;28;20968;-67
2022/06/12 13:16:41;;;;;;;2.97;2.67;;;34.70;49.20;;;;;;4990122;28;20446;-67
2022/06/12 13:19:37;;;;;;;6.23;2.87;;;34.70;49.30;;;;;;5034823;28;20814;-67
2022/06/12 13:22:24;;;;;;;3.90;2.83;;;34.70;48.90;;;;;;5032089;28;20857;-66
2022/06/12 13:25:04;;;;;;;3.00;2.70;;;34.00;50.20;;;;;;5038484;28;20816;-67
2022/06/12 13:27:33;;;;;;;4.10;2.87;;;33.50;50.90;;;;;;5034123;28;20957;-66
2022/06/12 13:30:00;;;;;;;3.73;2.90;;;33.40;51.70;;;;;;5033385;28;20514;-66
2022/06/12 13:32:34;;;;;;;2.60;2.40;;;34.40;51.40;;;;;;5036407;28;20437;-67
2022/06/12 13:35:23;;;;;;;5.23;2.97;;;34.80;50.10;;;;;;5039865;28;20614;-67
2022/06/12 13:37:50;;;;;;;3.90;2.97;;;34.90;49.50;;;;;;5040747;28;20443;-68
2022/06/12 13:40:26;;;;;;;3.60;2.77;;;36.50;48.70;;;;;;5035806;28;20423;-66
2022/06/12 13:43:13;;;;;;;3.30;2.60;;;37.70;47.00;;;;;;5021139;28;20468;-67